createdAt,value
2019-05-03T00:02:12.291Z,15.13
2019-05-03T00:04:42.320Z,17.15
2019-05-03T00:07:11.821Z,11.88
2019-05-03T00:09:42.633Z,14.90
2019-05-03T00:12:12.641Z,18.65
2019-05-03T00:14:43.152Z,16.12
2019-05-03T00:17:12.569Z,16.93
2019-05-03T00:19:42.233Z,17.10
2019-05-03T00:22:12.386Z,14.83
2019-05-03T00:24:42.697Z,12.00
2019-05-03T00:27:12.498Z,12.68
2019-05-03T00:29:41.908Z,15.25
2019-05-03T00:32:12.501Z,18.60
2019-05-03T00:34:48.934Z,13.15
2019-05-03T00:37:22.214Z,14.98
2019-05-03T00:39:52.653Z,12.53
2019-05-03T00:42:22.511Z,14.80
2019-05-03T00:44:51.730Z,18.12
2019-05-03T00:47:22.214Z,19.27
2019-05-03T00:49:51.866Z,18.20
2019-05-03T00:52:22.385Z,16.65
2019-05-03T00:54:52.859Z,19.00
2019-05-03T00:57:22.755Z,14.53
2019-05-03T00:59:52.849Z,14.40
2019-05-03T01:02:22.325Z,17.00
2019-05-03T01:04:51.791Z,14.33
2019-05-03T01:07:22.274Z,13.88
2019-05-03T01:09:51.768Z,18.32
2019-05-03T01:12:21.936Z,20.37
2019-05-03T01:14:52.595Z,16.93
2019-05-03T01:17:22.425Z,18.80
2019-05-03T01:19:52.148Z,16.95
2019-05-03T01:22:22.596Z,16.82
2019-05-03T01:24:51.953Z,19.60
2019-05-03T01:27:21.983Z,16.60
2019-05-03T01:29:51.924Z,22.40
2019-05-03T01:32:22.242Z,15.55
2019-05-03T01:34:52.326Z,17.00
2019-05-03T01:37:22.692Z,16.93
2019-05-03T01:39:52.579Z,16.73
2019-05-03T01:42:22.596Z,16.30
2019-05-03T01:44:52.246Z,17.27
2019-05-03T01:47:22.731Z,16.35
2019-05-03T01:49:53.063Z,17.23
2019-05-03T01:52:23.463Z,17.35
2019-05-03T01:54:52.305Z,16.50
2019-05-03T01:57:22.067Z,20.55
2019-05-03T01:59:52.064Z,20.20
2019-05-03T02:02:28.301Z,17.15
2019-05-03T02:05:15.189Z,19.00
2019-05-03T02:07:43.976Z,22.07
2019-05-03T02:10:14.410Z,17.00
2019-05-03T02:12:43.091Z,15.23
2019-05-03T02:15:12.512Z,16.80
2019-05-03T02:17:42.715Z,17.98
2019-05-03T02:20:12.590Z,15.38
2019-05-03T02:22:42.805Z,14.73
2019-05-03T02:25:12.529Z,18.75
2019-05-03T02:27:42.197Z,20.88
2019-05-03T02:30:14.203Z,17.02
2019-05-03T02:32:44.154Z,19.60
2019-05-03T02:35:14.761Z,20.92
2019-05-03T02:37:45.507Z,17.65
2019-05-03T02:40:14.626Z,19.70
2019-05-03T02:42:46.341Z,19.20
2019-05-03T02:45:25.730Z,16.40
2019-05-03T02:47:55.558Z,19.25
2019-05-03T02:50:26.026Z,17.17
2019-05-03T02:52:55.327Z,23.32
2019-05-03T02:55:25.997Z,16.02
2019-05-03T02:57:56.236Z,22.55
2019-05-03T03:00:45.424Z,20.27
2019-05-03T03:03:16.015Z,18.07
2019-05-03T03:05:46.406Z,19.65
2019-05-03T03:08:18.225Z,20.12
2019-05-03T03:10:47.541Z,17.40
2019-05-03T03:13:17.708Z,16.67
2019-05-03T03:15:47.749Z,21.33
2019-05-03T03:18:16.873Z,18.77
2019-05-03T03:20:48.008Z,23.85
2019-05-03T03:23:18.854Z,16.87
2019-05-03T03:25:50.291Z,16.85
2019-05-03T03:28:21.659Z,19.15
2019-05-03T03:31:21.079Z,17.30
2019-05-03T03:33:49.672Z,19.20
2019-05-03T03:36:50.288Z,21.50
2019-05-03T03:38:48.596Z,17.27
2019-05-03T03:41:17.975Z,23.95
2019-05-03T03:43:48.322Z,20.05
2019-05-03T03:46:18.004Z,24.23
2019-05-03T03:48:47.312Z,15.90
2019-05-03T03:51:17.519Z,20.08
2019-05-03T03:53:48.082Z,22.13
2019-05-03T03:56:18.575Z,16.87
2019-05-03T03:58:48.970Z,23.70
2019-05-03T04:01:18.096Z,19.20
2019-05-03T04:03:46.997Z,18.02
2019-05-03T04:06:17.183Z,16.35
2019-05-03T04:08:45.885Z,20.50
2019-05-03T04:11:15.563Z,16.60
2019-05-03T04:13:45.858Z,16.82
2019-05-03T04:16:32.609Z,21.27
2019-05-03T04:19:17.386Z,15.38
2019-05-03T04:21:45.709Z,19.67
2019-05-03T04:24:16.331Z,19.90
2019-05-03T04:26:45.450Z,20.70
2019-05-03T04:29:16.083Z,19.50
2019-05-03T04:31:45.792Z,24.80
2019-05-03T04:34:16.232Z,17.67
2019-05-03T04:36:46.158Z,16.77
2019-05-03T04:39:19.657Z,17.20
2019-05-03T04:41:45.558Z,24.57
2019-05-03T04:44:15.499Z,19.40
2019-05-03T04:46:46.543Z,20.92
2019-05-03T04:49:15.193Z,15.40
2019-05-03T04:51:46.494Z,23.85
2019-05-03T04:54:25.521Z,21.85
2019-05-03T04:56:56.143Z,18.95
2019-05-03T04:59:25.408Z,21.30
2019-05-03T05:01:56.008Z,23.77
2019-05-03T05:04:25.432Z,22.32
2019-05-03T05:06:55.477Z,22.98
2019-05-03T05:09:25.840Z,18.42
2019-05-03T05:11:54.968Z,16.45
2019-05-03T05:14:25.880Z,15.38
2019-05-03T05:16:55.682Z,17.45
2019-05-03T05:19:29.343Z,21.10
2019-05-03T05:22:03.949Z,22.48
2019-05-03T05:24:34.651Z,23.10
2019-05-03T05:27:14.699Z,24.15
2019-05-03T05:29:45.071Z,20.17
2019-05-03T05:32:14.488Z,16.73
2019-05-03T05:34:43.326Z,19.00
2019-05-03T05:37:12.022Z,25.75
2019-05-03T05:39:40.689Z,24.12
2019-05-03T05:42:09.374Z,18.32
2019-05-03T05:44:38.069Z,16.80
2019-05-03T05:47:14.962Z,25.70
2019-05-03T05:49:45.473Z,21.65
2019-05-03T05:52:15.483Z,19.77
2019-05-03T05:54:45.923Z,22.32
2019-05-03T05:57:28.572Z,18.07
2019-05-03T05:59:58.882Z,18.92
2019-05-03T06:02:27.622Z,20.52
2019-05-03T06:04:56.372Z,15.85
2019-05-03T06:07:39.024Z,18.52
2019-05-03T06:10:10.282Z,17.10
2019-05-03T06:12:49.843Z,21.80
2019-05-03T06:15:38.706Z,22.30
2019-05-03T06:18:09.043Z,17.77
2019-05-03T06:20:55.475Z,19.52
2019-05-03T06:23:31.891Z,18.48
2019-05-03T06:26:00.761Z,19.65
2019-05-03T06:28:35.253Z,21.35
2019-05-03T06:33:45.294Z,15.83
2019-05-03T06:36:15.286Z,16.90
2019-05-03T06:38:44.757Z,18.20
2019-05-03T06:41:15.083Z,18.55
2019-05-03T06:43:47.157Z,15.68
2019-05-03T06:46:17.749Z,14.63
2019-05-03T06:48:44.830Z,19.75
2019-05-03T06:51:17.870Z,15.60
2019-05-03T06:53:48.988Z,18.75
2019-05-03T06:56:14.822Z,16.12
2019-05-03T06:58:44.896Z,14.58
2019-05-03T07:01:21.343Z,13.80
2019-05-03T07:03:57.435Z,14.33
2019-05-03T07:06:40.149Z,17.70
2019-05-03T07:09:16.075Z,15.48
2019-05-03T07:11:45.171Z,14.25
2019-05-03T07:14:15.566Z,15.38
2019-05-03T07:16:44.473Z,13.93
2019-05-03T07:19:14.760Z,14.50
2019-05-03T07:21:44.676Z,13.43
2019-05-03T07:24:14.655Z,13.60
2019-05-03T07:26:44.833Z,12.37
2019-05-03T07:29:15.256Z,16.00
2019-05-03T07:31:44.738Z,18.40
2019-05-03T07:34:15.423Z,13.65
2019-05-03T07:36:46.664Z,13.98
2019-05-03T07:39:15.352Z,13.48
2019-05-03T07:41:44.640Z,21.48
2019-05-03T07:44:15.204Z,11.75
2019-05-03T07:46:45.186Z,12.10
2019-05-03T07:49:15.356Z,13.28
2019-05-03T07:51:44.874Z,14.10
2019-05-03T07:54:15.541Z,12.23
2019-05-03T07:56:48.460Z,14.50
2019-05-03T07:59:17.164Z,14.80
2019-05-03T08:01:47.475Z,15.20
2019-05-03T08:04:16.210Z,12.93
2019-05-03T08:06:44.899Z,13.48
2019-05-03T08:09:15.289Z,12.98
2019-05-03T08:11:44.458Z,10.70
2019-05-03T08:14:16.063Z,18.75
2019-05-03T08:16:45.568Z,14.78
2019-05-03T08:19:15.184Z,13.55
2019-05-03T08:21:45.331Z,16.62
2019-05-03T08:24:14.916Z,16.25
2019-05-03T08:26:45.285Z,12.60
2019-05-03T08:29:18.635Z,12.45
2019-05-03T08:32:05.111Z,10.58
2019-05-03T08:34:41.839Z,14.18
2019-05-03T08:37:15.360Z,15.75
2019-05-03T08:39:44.771Z,8.95
2019-05-03T08:42:18.071Z,16.05
2019-05-03T08:44:46.758Z,12.03
2019-05-03T08:47:15.630Z,15.45
2019-05-03T08:49:44.999Z,12.90
2019-05-03T08:52:15.696Z,13.65
2019-05-03T08:54:44.997Z,11.97
2019-05-03T08:57:14.941Z,14.10
2019-05-03T08:59:44.600Z,10.60
2019-05-03T09:02:16.541Z,14.78
2019-05-03T09:04:45.921Z,12.68
2019-05-03T09:07:14.907Z,12.60
2019-05-03T09:09:55.054Z,11.48
2019-05-03T09:12:25.204Z,12.40
2019-05-03T09:14:54.623Z,12.80
2019-05-03T09:17:24.669Z,10.13
2019-05-03T09:19:54.797Z,10.58
2019-05-03T09:22:25.564Z,13.20
2019-05-03T09:24:54.700Z,13.10
2019-05-03T09:27:25.432Z,9.75
2019-05-03T09:29:55.832Z,10.23
2019-05-03T09:32:25.644Z,17.23
2019-05-03T09:34:55.155Z,11.45
2019-05-03T09:37:25.033Z,8.80
2019-05-03T09:39:55.197Z,10.28
2019-05-03T09:42:24.822Z,13.95
2019-05-03T09:44:55.467Z,12.58
2019-05-03T09:47:25.244Z,10.93
2019-05-03T09:49:55.860Z,11.80
2019-05-03T09:52:25.178Z,15.18
2019-05-03T09:54:55.500Z,11.05
2019-05-03T09:57:24.761Z,11.05
2019-05-03T09:59:59.187Z,11.38
2019-05-03T10:02:24.631Z,14.80
2019-05-03T10:04:55.419Z,10.63
2019-05-03T10:07:25.780Z,9.50
2019-05-03T10:09:55.217Z,7.47
2019-05-03T10:12:25.670Z,8.03
2019-05-03T10:14:54.933Z,13.95
2019-05-03T10:17:35.107Z,14.20
2019-05-03T10:20:08.486Z,10.05
2019-05-03T10:22:37.234Z,11.93
2019-05-03T10:25:07.548Z,11.57
2019-05-03T10:27:37.943Z,13.80
2019-05-03T10:30:12.461Z,14.35
2019-05-03T10:32:39.340Z,11.00
2019-05-03T10:35:09.727Z,11.50
2019-05-03T10:37:38.390Z,13.72
2019-05-03T10:40:08.275Z,8.60
2019-05-03T10:42:37.058Z,10.88
2019-05-03T10:45:07.087Z,11.08
2019-05-03T10:47:35.839Z,8.93
2019-05-03T10:50:07.805Z,8.65
2019-05-03T10:52:44.829Z,11.45
2019-05-03T10:55:15.730Z,11.15
2019-05-03T10:57:45.730Z,10.50
2019-05-03T11:00:41.733Z,10.50
2019-05-03T11:02:57.588Z,9.90
2019-05-03T11:05:26.325Z,10.50
2019-05-03T11:07:55.624Z,11.78
2019-05-03T11:10:25.305Z,9.10
2019-05-03T11:12:54.830Z,8.05
2019-05-03T11:15:25.866Z,7.72
2019-05-03T11:17:54.876Z,8.03
2019-05-03T11:20:37.281Z,9.83
2019-05-03T11:23:07.375Z,9.58
2019-05-03T11:25:36.917Z,8.25
2019-05-03T11:28:17.468Z,5.92
2019-05-03T11:30:53.562Z,11.10
2019-05-03T11:33:35.231Z,10.75
2019-05-03T11:36:20.781Z,9.48
2019-05-03T11:38:49.553Z,14.13
2019-05-03T11:41:29.366Z,8.93
2019-05-03T11:43:48.739Z,9.68
2019-05-03T11:46:17.468Z,7.90
2019-05-03T11:48:46.239Z,10.72
2019-05-03T11:51:15.272Z,7.70
2019-05-03T11:53:45.008Z,10.15
2019-05-03T11:56:14.842Z,9.98
2019-05-03T11:58:45.675Z,6.47
2019-05-03T12:01:19.654Z,7.80
2019-05-03T12:03:47.942Z,6.90
2019-05-03T12:06:16.669Z,14.05
2019-05-03T12:08:45.425Z,8.98
2019-05-03T12:11:15.087Z,7.05
2019-05-03T12:13:45.672Z,11.25
2019-05-03T12:16:22.129Z,10.85
2019-05-03T12:18:53.008Z,6.83
2019-05-03T12:21:18.057Z,9.15
2019-05-03T12:23:47.015Z,7.90
2019-05-03T12:26:17.316Z,4.33
2019-05-03T12:28:46.707Z,10.18
2019-05-03T12:31:29.639Z,6.33
2019-05-03T12:33:46.200Z,7.28
2019-05-03T12:36:15.491Z,9.73
2019-05-03T12:38:47.386Z,10.13
2019-05-03T12:41:16.093Z,9.33
2019-05-03T12:43:47.760Z,7.75
2019-05-03T12:46:16.954Z,10.25
2019-05-03T12:48:45.677Z,9.23
2019-05-03T12:51:15.177Z,7.78
2019-05-03T12:53:44.465Z,8.80
2019-05-03T12:56:16.167Z,9.70
2019-05-03T12:59:00.400Z,6.85
2019-05-03T13:01:41.566Z,10.20
2019-05-03T13:04:11.766Z,9.18
2019-05-03T13:06:42.113Z,6.12
2019-05-03T13:09:11.142Z,8.13
2019-05-03T13:11:52.990Z,8.75
2019-05-03T13:14:12.133Z,8.53
2019-05-03T13:16:40.880Z,8.08
2019-05-03T13:19:09.568Z,6.33
2019-05-03T13:21:38.256Z,8.28
2019-05-03T13:24:06.906Z,7.20
2019-05-03T13:26:35.694Z,8.75
2019-05-03T13:29:05.875Z,7.80
2019-05-03T13:31:34.912Z,7.40
2019-05-03T13:34:05.539Z,9.85
2019-05-03T13:36:34.871Z,5.83
2019-05-03T13:39:13.272Z,6.62
2019-05-03T13:41:36.038Z,9.50
2019-05-03T13:44:05.257Z,9.23
2019-05-03T13:46:35.281Z,10.15
2019-05-03T13:49:05.404Z,11.30
2019-05-03T13:51:38.165Z,8.80
2019-05-03T13:54:09.986Z,10.40
2019-05-03T13:56:40.154Z,6.60
2019-05-03T13:59:18.926Z,10.98
2019-05-03T14:01:39.299Z,13.25
2019-05-03T14:04:08.054Z,11.33
2019-05-03T14:06:38.218Z,14.53
2019-05-03T14:09:12.039Z,11.97
2019-05-03T14:11:44.664Z,16.23
2019-05-03T14:14:15.206Z,11.10
2019-05-03T14:16:45.152Z,9.65
2019-05-03T14:19:15.680Z,10.23
2019-05-03T14:21:48.895Z,11.05
2019-05-03T14:24:17.559Z,9.68
2019-05-03T14:26:46.318Z,10.45
2019-05-03T14:29:15.198Z,9.85
2019-05-03T14:31:45.427Z,9.33
2019-05-03T14:34:17.036Z,9.55
2019-05-03T14:36:45.035Z,10.72
2019-05-03T14:39:15.013Z,7.60
2019-05-03T14:41:46.494Z,13.62
2019-05-03T14:44:17.851Z,7.08
2019-05-03T14:46:45.840Z,9.20
2019-05-03T14:49:14.944Z,8.55
2019-05-03T14:51:45.594Z,12.33
2019-05-03T14:54:14.639Z,8.18
2019-05-03T14:56:56.176Z,6.47
2019-05-03T14:59:42.631Z,7.80
2019-05-03T15:05:05.360Z,8.18
2019-05-03T15:07:35.158Z,9.50
2019-05-03T15:10:05.755Z,8.35
2019-05-03T15:12:35.969Z,8.78
2019-05-03T15:15:07.560Z,7.87
2019-05-03T15:17:36.246Z,7.75
2019-05-03T15:20:07.856Z,8.23
2019-05-03T15:22:36.568Z,6.35
2019-05-03T15:25:06.646Z,9.20
2019-05-03T15:27:35.502Z,7.37
2019-05-03T15:30:05.904Z,12.98
2019-05-03T15:32:35.366Z,8.38
2019-05-03T15:35:06.537Z,8.28
2019-05-03T15:37:36.499Z,11.25
2019-05-03T15:40:08.658Z,4.65
2019-05-03T15:42:38.951Z,6.95
2019-05-03T15:45:25.763Z,10.23
2019-05-03T15:48:15.264Z,8.38
2019-05-03T15:50:44.679Z,5.90
2019-05-03T15:53:15.142Z,9.73
2019-05-03T15:55:43.953Z,10.60
2019-05-03T15:58:12.608Z,9.45
2019-05-03T16:00:41.394Z,9.23
2019-05-03T16:03:11.238Z,5.37
2019-05-03T16:05:40.098Z,5.28
2019-05-03T16:08:10.215Z,8.35
2019-05-03T16:10:38.911Z,6.87
2019-05-03T16:13:07.755Z,5.30
2019-05-03T16:15:36.459Z,8.80
2019-05-03T16:18:08.419Z,7.92
2019-05-03T16:20:39.397Z,6.30
2019-05-03T16:23:08.439Z,9.33
2019-05-03T16:25:38.145Z,5.60
2019-05-03T16:28:11.161Z,7.28
2019-05-03T16:30:41.712Z,5.47
2019-05-03T16:33:25.593Z,6.78
2019-05-03T16:35:40.854Z,6.47
2019-05-03T16:38:09.537Z,6.20
2019-05-03T16:40:39.246Z,5.25
2019-05-03T16:43:07.970Z,6.00
2019-05-03T16:45:36.739Z,9.73
2019-05-03T16:48:05.441Z,10.32
2019-05-03T16:50:34.595Z,8.83
2019-05-03T16:53:05.425Z,8.93
2019-05-03T16:55:35.164Z,6.92
2019-05-03T16:58:04.072Z,7.12
2019-05-03T17:00:32.758Z,7.20
2019-05-03T17:03:01.424Z,7.05
2019-05-03T17:05:37.917Z,5.58
2019-05-03T17:08:14.668Z,7.50
2019-05-03T17:10:45.731Z,5.58
2019-05-03T17:13:15.883Z,10.58
2019-05-03T17:15:44.789Z,12.10
2019-05-03T17:18:14.723Z,5.53
2019-05-03T17:20:45.335Z,7.72
2019-05-03T17:23:15.455Z,8.43
2019-05-03T17:25:44.590Z,8.73
2019-05-03T17:28:13.296Z,5.72
2019-05-03T17:30:42.004Z,9.13
2019-05-03T17:33:10.669Z,12.35
2019-05-03T17:35:39.380Z,11.55
2019-05-03T17:38:08.110Z,10.53
2019-05-03T17:40:41.201Z,7.40
2019-05-03T17:43:17.514Z,9.18
2019-05-03T17:45:50.707Z,8.95
2019-05-03T17:48:19.433Z,13.75
2019-05-03T17:50:48.154Z,9.48
2019-05-03T17:56:06.677Z,8.40
2019-05-03T17:58:44.353Z,12.37
2019-05-03T18:01:23.766Z,14.53
2019-05-03T18:04:05.725Z,10.85
2019-05-03T18:06:26.276Z,10.68
2019-05-03T18:08:56.821Z,10.65
2019-05-03T18:11:27.131Z,12.93
2019-05-03T18:13:55.904Z,10.23
2019-05-03T18:16:24.646Z,10.30
2019-05-03T18:18:54.739Z,10.78
2019-05-03T18:21:24.493Z,14.60
2019-05-03T18:23:54.513Z,11.43
2019-05-03T18:26:24.952Z,13.85
2019-05-03T18:28:55.337Z,12.03
2019-05-03T18:31:25.069Z,16.35
2019-05-03T18:33:54.787Z,12.45
2019-05-03T18:36:25.240Z,9.25
2019-05-03T18:38:55.212Z,7.87
2019-05-03T18:41:25.511Z,11.53
2019-05-03T18:43:58.981Z,8.25
2019-05-03T18:46:29.312Z,12.82
2019-05-03T18:48:58.202Z,10.20
2019-05-03T18:51:26.945Z,11.05
2019-05-03T18:53:57.410Z,11.12
2019-05-03T18:56:26.143Z,8.85
2019-05-03T18:58:54.913Z,10.13
2019-05-03T19:01:25.290Z,11.28
2019-05-03T19:03:55.874Z,13.80
2019-05-03T19:06:24.614Z,15.88
2019-05-03T19:09:11.161Z,11.55
2019-05-03T19:11:44.565Z,7.53
2019-05-03T19:14:17.639Z,9.13
2019-05-03T19:16:57.154Z,6.47
2019-05-03T19:19:30.245Z,7.30
2019-05-03T19:21:58.977Z,8.90
2019-05-03T19:24:27.674Z,7.47
2019-05-03T19:26:56.341Z,6.90
2019-05-03T19:29:25.134Z,7.78
2019-05-03T19:31:55.246Z,6.45
2019-05-03T19:34:26.854Z,7.25
2019-05-03T19:36:54.903Z,7.05
2019-05-03T19:39:25.242Z,8.63
2019-05-03T19:41:55.312Z,10.40
2019-05-03T19:44:24.187Z,10.63
2019-05-03T19:46:53.003Z,7.03
2019-05-03T19:49:21.737Z,7.40
2019-05-03T19:51:50.495Z,11.05
2019-05-03T19:54:22.255Z,10.25
2019-05-03T19:56:50.946Z,9.58
2019-05-03T19:59:37.685Z,10.30
2019-05-03T20:02:11.016Z,11.35
2019-05-03T20:04:41.303Z,9.23
2019-05-03T20:07:20.931Z,12.50
2019-05-03T20:09:49.675Z,10.82
2019-05-03T20:12:18.838Z,13.93
2019-05-03T20:14:49.507Z,10.35
2019-05-03T20:17:18.003Z,11.95
2019-05-03T20:19:46.667Z,12.82
2019-05-03T20:22:15.378Z,11.43
2019-05-03T20:24:44.726Z,9.83
2019-05-03T20:27:15.111Z,11.20
2019-05-03T20:29:46.129Z,14.03
2019-05-03T20:32:15.897Z,11.10
2019-05-03T20:34:44.769Z,10.38
2019-05-03T20:37:14.689Z,10.30
2019-05-03T20:39:43.492Z,10.95
2019-05-03T20:42:15.359Z,9.10
2019-05-03T20:44:45.761Z,7.97
2019-05-03T20:47:21.787Z,7.62
2019-05-03T20:50:08.284Z,12.70
2019-05-03T20:52:37.241Z,11.48
2019-05-03T20:55:06.036Z,8.50
2019-05-03T20:57:35.275Z,14.07
2019-05-03T21:00:06.560Z,10.00
2019-05-03T21:02:35.252Z,8.93
2019-05-03T21:05:09.156Z,13.00
2019-05-03T21:07:37.943Z,12.70
2019-05-03T21:10:08.011Z,11.68
2019-05-03T21:12:36.762Z,10.18
2019-05-03T21:15:08.606Z,11.05
2019-05-03T21:17:47.786Z,8.23
2019-05-03T21:20:26.968Z,6.83
2019-05-03T21:22:55.732Z,10.00
2019-05-03T21:25:36.548Z,7.95
2019-05-03T21:28:05.492Z,8.75
2019-05-03T21:30:35.210Z,9.20
2019-05-03T21:33:05.449Z,6.53
2019-05-03T21:35:41.437Z,11.22
2019-05-03T21:38:04.680Z,11.63
2019-05-03T21:40:34.903Z,8.20
2019-05-03T21:43:04.859Z,8.35
2019-05-03T21:45:45.322Z,7.05
2019-05-03T21:48:15.811Z,8.38
2019-05-03T21:50:44.730Z,9.55
2019-05-03T21:53:14.726Z,6.47
2019-05-03T21:55:45.688Z,8.93
2019-05-03T21:58:16.391Z,9.13
2019-05-03T22:00:47.962Z,9.03
2019-05-03T22:03:16.654Z,9.25
2019-05-03T22:05:54.501Z,9.73
2019-05-03T22:08:16.184Z,7.95
2019-05-03T22:10:45.129Z,8.95
2019-05-03T22:13:15.396Z,9.10
2019-05-03T22:15:51.588Z,9.68
2019-05-03T22:18:24.907Z,9.95
2019-05-03T22:21:01.048Z,8.85
2019-05-03T22:23:31.363Z,11.28
2019-05-03T22:26:02.559Z,10.85
2019-05-03T22:28:31.322Z,8.15
2019-05-03T22:31:00.054Z,9.38
2019-05-03T22:33:29.174Z,11.57
2019-05-03T22:36:08.235Z,12.07
2019-05-03T22:38:28.532Z,12.47
2019-05-03T22:40:58.719Z,11.28
2019-05-03T22:43:27.490Z,10.23
2019-05-03T22:45:58.288Z,11.20
2019-05-03T22:48:27.014Z,10.43
2019-05-03T22:50:56.036Z,13.43
2019-05-03T22:53:25.441Z,12.33
2019-05-03T22:55:54.400Z,12.47
2019-05-03T22:58:24.898Z,13.40
2019-05-03T23:00:55.065Z,12.33
2019-05-03T23:03:24.978Z,13.05
2019-05-03T23:05:54.827Z,11.08
2019-05-03T23:08:25.284Z,13.15
2019-05-03T23:10:54.717Z,18.32
2019-05-03T23:13:24.931Z,13.78
2019-05-03T23:15:54.667Z,9.73
2019-05-03T23:18:24.674Z,11.75
2019-05-03T23:20:58.026Z,14.87
2019-05-03T23:23:45.552Z,11.97
2019-05-03T23:26:14.822Z,7.70
2019-05-03T23:28:45.290Z,16.02
2019-05-03T23:31:14.707Z,12.85
2019-05-03T23:33:45.267Z,12.70
2019-05-03T23:36:15.401Z,14.43
2019-05-03T23:38:45.272Z,12.20
2019-05-03T23:41:15.287Z,13.32
2019-05-03T23:43:45.059Z,11.68
2019-05-03T23:46:15.340Z,11.00
2019-05-03T23:48:44.688Z,13.60
2019-05-03T23:51:15.280Z,14.13
2019-05-03T23:53:44.630Z,18.30
2019-05-03T23:56:21.057Z,12.43
2019-05-03T23:58:49.778Z,11.08
